sensor_id;sensor_type;location;lat;lon;timestamp;temperature;humidity
55203;DHT22;41077;52.956;6.796;2022-11-20T00:00:50;-0.70;99.90
55203;DHT22;41077;52.956;6.796;2022-11-20T00:03:16;-0.70;99.90
55203;DHT22;41077;52.956;6.796;2022-11-20T00:05:43;-0.60;99.90
55203;DHT22;41077;52.956;6.796;2022-11-20T00:08:09;-0.60;99.90
55203;DHT22;41077;52.956;6.796;2022-11-20T00:10:38;-0.50;99.90
55203;DHT22;41077;52.956;6.796;2022-11-20T00:13:05;-0.50;99.90
55203;DHT22;41077;52.956;6.796;2022-11-20T00:15:31;-0.50;99.90
55203;DHT22;41077;52.956;6.796;2022-11-20T00:17:56;-0.40;99.90
55203;DHT22;41077;52.956;6.796;2022-11-20T00:20:22;-0.40;99.90
55203;DHT22;41077;52.956;6.796;2022-11-20T00:22:49;-0.40;99.90
55203;DHT22;41077;52.956;6.796;2022-11-20T00:25:15;-0.40;99.90
55203;DHT22;41077;52.956;6.796;2022-11-20T00:27:41;-0.40;99.90
55203;DHT22;41077;52.956;6.796;2022-11-20T00:30:07;-0.40;99.90
55203;DHT22;41077;52.956;6.796;2022-11-20T00:32:33;-0.40;99.90
55203;DHT22;41077;52.956;6.796;2022-11-20T00:34:58;-0.40;99.90
55203;DHT22;41077;52.956;6.796;2022-11-20T00:37:24;-0.40;99.90
55203;DHT22;41077;52.956;6.796;2022-11-20T00:39:50;-0.40;99.90
55203;DHT22;41077;52.956;6.796;2022-11-20T00:42:15;-0.40;99.90
55203;DHT22;41077;52.956;6.796;2022-11-20T00:44:41;-0.30;99.90
55203;DHT22;41077;52.956;6.796;2022-11-20T00:47:07;-0.30;99.90
55203;DHT22;41077;52.956;6.796;2022-11-20T00:49:32;-0.30;99.90
55203;DHT22;41077;52.956;6.796;2022-11-20T00:51:58;-0.30;99.90
55203;DHT22;41077;52.956;6.796;2022-11-20T00:54:24;-0.30;99.90
55203;DHT22;41077;52.956;6.796;2022-11-20T00:56:49;-0.30;99.90
55203;DHT22;41077;52.956;6.796;2022-11-20T00:59:15;-0.20;99.90
55203;DHT22;41077;52.956;6.796;2022-11-20T01:01:40;-0.20;99.90
55203;DHT22;41077;52.956;6.796;2022-11-20T01:04:06;-0.20;99.90
55203;DHT22;41077;52.956;6.796;2022-11-20T01:06:35;-0.20;99.90
55203;DHT22;41077;52.956;6.796;2022-11-20T01:09:08;-0.20;99.90
55203;DHT22;41077;52.956;6.796;2022-11-20T01:11:37;-0.20;99.90
55203;DHT22;41077;52.956;6.796;2022-11-20T01:14:05;-0.20;99.90
55203;DHT22;41077;52.956;6.796;2022-11-20T01:16:34;-0.20;99.90
55203;DHT22;41077;52.956;6.796;2022-11-20T01:19:03;-0.10;99.90
55203;DHT22;41077;52.956;6.796;2022-11-20T01:21:34;-0.10;99.90
55203;DHT22;41077;52.956;6.796;2022-11-20T01:24:02;-0.10;99.90
55203;DHT22;41077;52.956;6.796;2022-11-20T01:26:30;-0.10;99.90
55203;DHT22;41077;52.956;6.796;2022-11-20T01:28:57;-0.10;99.90
55203;DHT22;41077;52.956;6.796;2022-11-20T01:31:28;-0.10;99.90
55203;DHT22;41077;52.956;6.796;2022-11-20T01:33:57;0.00;99.90
55203;DHT22;41077;52.956;6.796;2022-11-20T01:36:25;-0.10;99.90
55203;DHT22;41077;52.956;6.796;2022-11-20T01:38:55;0.00;99.90
55203;DHT22;41077;52.956;6.796;2022-11-20T01:41:22;0.00;99.90
55203;DHT22;41077;52.956;6.796;2022-11-20T01:44:10;-0.10;99.90
55203;DHT22;41077;52.956;6.796;2022-11-20T01:46:38;0.00;99.90
55203;DHT22;41077;52.956;6.796;2022-11-20T01:49:15;-0.10;99.90
55203;DHT22;41077;52.956;6.796;2022-11-20T01:51:45;-0.10;99.90
55203;DHT22;41077;52.956;6.796;2022-11-20T01:54:40;-0.10;99.90
55203;DHT22;41077;52.956;6.796;2022-11-20T01:57:04;0.00;99.90
55203;DHT22;41077;52.956;6.796;2022-11-20T01:59:32;-0.10;99.90
55203;DHT22;41077;52.956;6.796;2022-11-20T02:01:58;0.00;99.90
55203;DHT22;41077;52.956;6.796;2022-11-20T02:04:24;0.00;99.90
55203;DHT22;41077;52.956;6.796;2022-11-20T02:06:59;0.00;99.90
55203;DHT22;41077;52.956;6.796;2022-11-20T02:09:25;0.00;99.90
55203;DHT22;41077;52.956;6.796;2022-11-20T02:11:51;0.00;99.90
55203;DHT22;41077;52.956;6.796;2022-11-20T02:14:17;0.00;99.90
55203;DHT22;41077;52.956;6.796;2022-11-20T02:16:47;0.10;99.90
55203;DHT22;41077;52.956;6.796;2022-11-20T02:19:28;0.10;99.90
55203;DHT22;41077;52.956;6.796;2022-11-20T02:22:14;0.10;99.90
55203;DHT22;41077;52.956;6.796;2022-11-20T02:24:43;0.10;99.90
55203;DHT22;41077;52.956;6.796;2022-11-20T02:27:14;0.10;99.90
55203;DHT22;41077;52.956;6.796;2022-11-20T02:29:49;0.10;99.90
55203;DHT22;41077;52.956;6.796;2022-11-20T02:32:25;0.10;99.90
55203;DHT22;41077;52.956;6.796;2022-11-20T02:34:51;0.10;99.90
55203;DHT22;41077;52.956;6.796;2022-11-20T02:37:16;0.10;99.90
55203;DHT22;41077;52.956;6.796;2022-11-20T02:39:43;0.10;99.90
55203;DHT22;41077;52.956;6.796;2022-11-20T02:42:10;0.10;99.90
55203;DHT22;41077;52.956;6.796;2022-11-20T02:44:35;0.10;99.90
55203;DHT22;41077;52.956;6.796;2022-11-20T02:47:01;0.20;99.90
55203;DHT22;41077;52.956;6.796;2022-11-20T02:49:27;0.20;99.90
55203;DHT22;41077;52.956;6.796;2022-11-20T02:51:52;0.20;99.90
55203;DHT22;41077;52.956;6.796;2022-11-20T02:54:18;0.20;99.90
55203;DHT22;41077;52.956;6.796;2022-11-20T02:56:44;0.20;99.90
55203;DHT22;41077;52.956;6.796;2022-11-20T02:59:09;0.20;99.90
55203;DHT22;41077;52.956;6.796;2022-11-20T03:01:35;0.30;99.90
55203;DHT22;41077;52.956;6.796;2022-11-20T03:04:02;0.30;99.90
55203;DHT22;41077;52.956;6.796;2022-11-20T03:06:28;0.30;99.90
55203;DHT22;41077;52.956;6.796;2022-11-20T03:08:54;0.30;99.90
55203;DHT22;41077;52.956;6.796;2022-11-20T03:11:19;0.30;99.90
55203;DHT22;41077;52.956;6.796;2022-11-20T03:13:45;0.30;99.90
55203;DHT22;41077;52.956;6.796;2022-11-20T03:16:17;0.30;99.90
55203;DHT22;41077;52.956;6.796;2022-11-20T03:18:43;0.30;99.90
55203;DHT22;41077;52.956;6.796;2022-11-20T03:21:10;0.30;99.90
55203;DHT22;41077;52.956;6.796;2022-11-20T03:23:37;0.20;99.90
55203;DHT22;41077;52.956;6.796;2022-11-20T03:26:13;0.30;99.90
55203;DHT22;41077;52.956;6.796;2022-11-20T03:28:40;0.30;99.90
55203;DHT22;41077;52.956;6.796;2022-11-20T03:31:11;0.30;99.90
55203;DHT22;41077;52.956;6.796;2022-11-20T03:33:37;0.30;99.90
55203;DHT22;41077;52.956;6.796;2022-11-20T03:36:05;0.40;99.90
55203;DHT22;41077;52.956;6.796;2022-11-20T03:38:31;0.30;99.90
55203;DHT22;41077;52.956;6.796;2022-11-20T03:40:59;0.30;99.90
55203;DHT22;41077;52.956;6.796;2022-11-20T03:43:25;0.40;99.90
55203;DHT22;41077;52.956;6.796;2022-11-20T03:45:51;0.30;99.90
55203;DHT22;41077;52.956;6.796;2022-11-20T03:48:16;0.30;99.90
55203;DHT22;41077;52.956;6.796;2022-11-20T03:50:42;0.30;99.90
55203;DHT22;41077;52.956;6.796;2022-11-20T03:53:07;0.30;99.90
55203;DHT22;41077;52.956;6.796;2022-11-20T03:55:33;0.30;99.90
55203;DHT22;41077;52.956;6.796;2022-11-20T03:57:59;0.30;99.90
55203;DHT22;41077;52.956;6.796;2022-11-20T04:00:24;0.30;99.90
55203;DHT22;41077;52.956;6.796;2022-11-20T04:02:50;0.40;99.90
55203;DHT22;41077;52.956;6.796;2022-11-20T04:05:16;0.30;99.90
55203;DHT22;41077;52.956;6.796;2022-11-20T04:07:41;0.40;99.90
55203;DHT22;41077;52.956;6.796;2022-11-20T04:10:07;0.40;99.90
55203;DHT22;41077;52.956;6.796;2022-11-20T04:12:33;0.30;99.90
55203;DHT22;41077;52.956;6.796;2022-11-20T04:14:59;0.40;99.90
55203;DHT22;41077;52.956;6.796;2022-11-20T04:17:24;0.30;99.90
55203;DHT22;41077;52.956;6.796;2022-11-20T04:19:50;0.40;99.90
55203;DHT22;41077;52.956;6.796;2022-11-20T04:22:16;0.30;99.90
55203;DHT22;41077;52.956;6.796;2022-11-20T04:24:41;0.30;99.90
55203;DHT22;41077;52.956;6.796;2022-11-20T04:27:07;0.30;99.90
55203;DHT22;41077;52.956;6.796;2022-11-20T04:29:33;0.30;99.90
55203;DHT22;41077;52.956;6.796;2022-11-20T04:31:58;0.30;99.90
55203;DHT22;41077;52.956;6.796;2022-11-20T04:34:24;0.30;99.90
55203;DHT22;41077;52.956;6.796;2022-11-20T04:36:49;0.30;99.90
55203;DHT22;41077;52.956;6.796;2022-11-20T04:39:15;0.30;99.90
55203;DHT22;41077;52.956;6.796;2022-11-20T04:41:41;0.30;99.90
55203;DHT22;41077;52.956;6.796;2022-11-20T04:44:06;0.30;99.90
55203;DHT22;41077;52.956;6.796;2022-11-20T04:46:38;0.40;99.90
55203;DHT22;41077;52.956;6.796;2022-11-20T04:49:04;0.40;99.90
55203;DHT22;41077;52.956;6.796;2022-11-20T04:51:30;0.30;99.90
55203;DHT22;41077;52.956;6.796;2022-11-20T04:53:56;0.30;99.90
55203;DHT22;41077;52.956;6.796;2022-11-20T04:56:22;0.40;99.90
55203;DHT22;41077;52.956;6.796;2022-11-20T04:58:48;0.40;99.90
55203;DHT22;41077;52.956;6.796;2022-11-20T05:01:23;0.40;99.90
55203;DHT22;41077;52.956;6.796;2022-11-20T05:03:49;0.40;99.90
55203;DHT22;41077;52.956;6.796;2022-11-20T05:06:18;0.40;99.90
55203;DHT22;41077;52.956;6.796;2022-11-20T05:08:44;0.40;99.90
55203;DHT22;41077;52.956;6.796;2022-11-20T05:11:15;0.40;99.90
55203;DHT22;41077;52.956;6.796;2022-11-20T05:13:41;0.40;99.90
55203;DHT22;41077;52.956;6.796;2022-11-20T05:16:13;0.40;99.90
55203;DHT22;41077;52.956;6.796;2022-11-20T05:18:39;0.40;99.90
55203;DHT22;41077;52.956;6.796;2022-11-20T05:21:06;0.40;99.90
55203;DHT22;41077;52.956;6.796;2022-11-20T05:23:33;0.40;99.90
55203;DHT22;41077;52.956;6.796;2022-11-20T05:25:59;0.40;99.90
55203;DHT22;41077;52.956;6.796;2022-11-20T05:28:26;0.40;99.90
55203;DHT22;41077;52.956;6.796;2022-11-20T05:30:52;0.40;99.90
55203;DHT22;41077;52.956;6.796;2022-11-20T05:33:18;0.40;99.90
55203;DHT22;41077;52.956;6.796;2022-11-20T05:35:44;0.40;99.90
55203;DHT22;41077;52.956;6.796;2022-11-20T05:38:09;0.50;99.90
55203;DHT22;41077;52.956;6.796;2022-11-20T05:40:35;0.40;99.90
55203;DHT22;41077;52.956;6.796;2022-11-20T05:43:01;0.50;99.90
55203;DHT22;41077;52.956;6.796;2022-11-20T05:45:27;0.50;99.90
55203;DHT22;41077;52.956;6.796;2022-11-20T05:47:53;0.50;99.90
55203;DHT22;41077;52.956;6.796;2022-11-20T05:50:18;0.40;99.90
55203;DHT22;41077;52.956;6.796;2022-11-20T05:52:44;0.40;99.90
55203;DHT22;41077;52.956;6.796;2022-11-20T05:55:10;0.50;99.90
55203;DHT22;41077;52.956;6.796;2022-11-20T05:57:35;0.40;99.90
55203;DHT22;41077;52.956;6.796;2022-11-20T06:00:02;0.40;99.90
55203;DHT22;41077;52.956;6.796;2022-11-20T06:02:28;0.40;99.90
55203;DHT22;41077;52.956;6.796;2022-11-20T06:04:53;0.40;99.90
55203;DHT22;41077;52.956;6.796;2022-11-20T06:07:19;0.40;99.90
55203;DHT22;41077;52.956;6.796;2022-11-20T06:09:45;0.40;99.90
55203;DHT22;41077;52.956;6.796;2022-11-20T06:12:11;0.40;99.90
55203;DHT22;41077;52.956;6.796;2022-11-20T06:14:36;0.40;99.90
55203;DHT22;41077;52.956;6.796;2022-11-20T06:17:02;0.40;99.90
55203;DHT22;41077;52.956;6.796;2022-11-20T06:19:27;0.40;99.90
55203;DHT22;41077;52.956;6.796;2022-11-20T06:21:53;0.40;99.90
55203;DHT22;41077;52.956;6.796;2022-11-20T06:24:19;0.40;99.90
55203;DHT22;41077;52.956;6.796;2022-11-20T06:26:44;0.40;99.90
55203;DHT22;41077;52.956;6.796;2022-11-20T06:29:10;0.40;99.90
55203;DHT22;41077;52.956;6.796;2022-11-20T06:31:36;0.40;99.90
55203;DHT22;41077;52.956;6.796;2022-11-20T06:34:06;0.40;99.90
55203;DHT22;41077;52.956;6.796;2022-11-20T06:36:32;0.40;99.90
55203;DHT22;41077;52.956;6.796;2022-11-20T06:38:59;0.40;99.90
55203;DHT22;41077;52.956;6.796;2022-11-20T06:41:25;0.40;99.90
55203;DHT22;41077;52.956;6.796;2022-11-20T06:43:51;0.40;99.90
55203;DHT22;41077;52.956;6.796;2022-11-20T06:46:17;0.40;99.90
55203;DHT22;41077;52.956;6.796;2022-11-20T06:48:45;0.40;99.90
55203;DHT22;41077;52.956;6.796;2022-11-20T06:51:11;0.40;99.90
55203;DHT22;41077;52.956;6.796;2022-11-20T06:53:37;0.40;99.90
55203;DHT22;41077;52.956;6.796;2022-11-20T06:56:03;0.50;99.90
55203;DHT22;41077;52.956;6.796;2022-11-20T06:58:30;0.50;99.90
55203;DHT22;41077;52.956;6.796;2022-11-20T07:01:00;0.40;99.90
55203;DHT22;41077;52.956;6.796;2022-11-20T07:03:26;0.50;99.90
55203;DHT22;41077;52.956;6.796;2022-11-20T07:05:55;0.50;99.90
55203;DHT22;41077;52.956;6.796;2022-11-20T07:08:23;0.50;99.90
55203;DHT22;41077;52.956;6.796;2022-11-20T07:10:48;0.50;99.90
55203;DHT22;41077;52.956;6.796;2022-11-20T07:13:14;0.60;99.90
55203;DHT22;41077;52.956;6.796;2022-11-20T07:15:40;0.50;99.90
55203;DHT22;41077;52.956;6.796;2022-11-20T07:18:06;0.50;99.90
55203;DHT22;41077;52.956;6.796;2022-11-20T07:20:31;0.50;99.90
55203;DHT22;41077;52.956;6.796;2022-11-20T07:22:57;0.60;99.90
55203;DHT22;41077;52.956;6.796;2022-11-20T07:25:24;0.60;99.90
55203;DHT22;41077;52.956;6.796;2022-11-20T07:27:51;0.60;99.90
55203;DHT22;41077;52.956;6.796;2022-11-20T07:30:17;0.60;99.90
55203;DHT22;41077;52.956;6.796;2022-11-20T07:32:46;0.60;99.90
55203;DHT22;41077;52.956;6.796;2022-11-20T07:35:12;0.60;99.90
55203;DHT22;41077;52.956;6.796;2022-11-20T07:37:38;0.50;99.90
55203;DHT22;41077;52.956;6.796;2022-11-20T07:40:04;0.60;99.90
55203;DHT22;41077;52.956;6.796;2022-11-20T07:42:30;0.60;99.90
55203;DHT22;41077;52.956;6.796;2022-11-20T07:44:55;0.60;99.90
55203;DHT22;41077;52.956;6.796;2022-11-20T07:47:21;0.60;99.90
55203;DHT22;41077;52.956;6.796;2022-11-20T07:49:47;0.60;99.90
55203;DHT22;41077;52.956;6.796;2022-11-20T07:52:12;0.70;99.90
55203;DHT22;41077;52.956;6.796;2022-11-20T07:54:38;0.70;99.90
55203;DHT22;41077;52.956;6.796;2022-11-20T07:57:04;0.70;99.90
55203;DHT22;41077;52.956;6.796;2022-11-20T07:59:29;0.70;99.90
55203;DHT22;41077;52.956;6.796;2022-11-20T08:01:55;0.70;99.90
55203;DHT22;41077;52.956;6.796;2022-11-20T08:04:21;0.70;99.90
55203;DHT22;41077;52.956;6.796;2022-11-20T08:06:47;0.70;99.90
55203;DHT22;41077;52.956;6.796;2022-11-20T08:09:12;0.70;99.90
55203;DHT22;41077;52.956;6.796;2022-11-20T08:11:38;0.70;99.90
55203;DHT22;41077;52.956;6.796;2022-11-20T08:14:22;0.80;99.90
55203;DHT22;41077;52.956;6.796;2022-11-20T08:16:49;0.80;99.90
55203;DHT22;41077;52.956;6.796;2022-11-20T08:19:16;0.80;99.90
55203;DHT22;41077;52.956;6.796;2022-11-20T08:21:43;0.80;99.90
55203;DHT22;41077;52.956;6.796;2022-11-20T08:24:09;0.80;99.90
55203;DHT22;41077;52.956;6.796;2022-11-20T08:26:36;0.80;99.90
55203;DHT22;41077;52.956;6.796;2022-11-20T08:29:03;0.90;99.90
55203;DHT22;41077;52.956;6.796;2022-11-20T08:58:46;0.80;99.90
55203;DHT22;41077;52.956;6.796;2022-11-20T09:01:12;1.00;99.90
55203;DHT22;41077;52.956;6.796;2022-11-20T09:03:38;1.00;99.90
55203;DHT22;41077;52.956;6.796;2022-11-20T09:06:06;1.00;99.90
55203;DHT22;41077;52.956;6.796;2022-11-20T09:08:32;1.10;99.90
55203;DHT22;41077;52.956;6.796;2022-11-20T09:10:59;1.10;99.90
55203;DHT22;41077;52.956;6.796;2022-11-20T09:13:26;1.00;99.90
55203;DHT22;41077;52.956;6.796;2022-11-20T09:15:54;1.10;99.90
55203;DHT22;41077;52.956;6.796;2022-11-20T09:18:20;1.10;99.90
55203;DHT22;41077;52.956;6.796;2022-11-20T09:20:46;1.10;99.90
55203;DHT22;41077;52.956;6.796;2022-11-20T09:23:11;1.10;99.90
55203;DHT22;41077;52.956;6.796;2022-11-20T09:25:37;1.10;99.90
55203;DHT22;41077;52.956;6.796;2022-11-20T09:28:03;1.20;99.90
55203;DHT22;41077;52.956;6.796;2022-11-20T09:30:29;1.20;99.90
55203;DHT22;41077;52.956;6.796;2022-11-20T09:32:54;1.20;99.90
55203;DHT22;41077;52.956;6.796;2022-11-20T09:35:20;1.20;99.90
55203;DHT22;41077;52.956;6.796;2022-11-20T09:37:46;1.30;99.90
55203;DHT22;41077;52.956;6.796;2022-11-20T09:40:28;1.30;99.90
55203;DHT22;41077;52.956;6.796;2022-11-20T09:46:19;1.40;99.90
55203;DHT22;41077;52.956;6.796;2022-11-20T09:51:39;1.40;99.90
55203;DHT22;41077;52.956;6.796;2022-11-20T09:54:14;1.40;99.90
55203;DHT22;41077;52.956;6.796;2022-11-20T09:56:44;1.50;99.90
55203;DHT22;41077;52.956;6.796;2022-11-20T09:59:35;1.50;99.90
55203;DHT22;41077;52.956;6.796;2022-11-20T10:02:08;1.50;99.90
55203;DHT22;41077;52.956;6.796;2022-11-20T10:04:40;1.50;99.90
55203;DHT22;41077;52.956;6.796;2022-11-20T10:07:15;1.60;99.90
55203;DHT22;41077;52.956;6.796;2022-11-20T10:09:52;1.60;99.90
55203;DHT22;41077;52.956;6.796;2022-11-20T10:17:59;1.70;99.90
55203;DHT22;41077;52.956;6.796;2022-11-20T10:23:26;1.70;99.90
55203;DHT22;41077;52.956;6.796;2022-11-20T10:31:34;1.80;99.90
55203;DHT22;41077;52.956;6.796;2022-11-20T10:34:06;1.80;99.90
55203;DHT22;41077;52.956;6.796;2022-11-20T10:36:44;1.80;99.90
55203;DHT22;41077;52.956;6.796;2022-11-20T10:39:46;1.90;99.90
55203;DHT22;41077;52.956;6.796;2022-11-20T10:42:19;2.00;99.90
55203;DHT22;41077;52.956;6.796;2022-11-20T10:44:52;2.10;99.90
55203;DHT22;41077;52.956;6.796;2022-11-20T10:47:30;2.20;99.90
55203;DHT22;41077;52.956;6.796;2022-11-20T10:50:01;2.20;99.90
55203;DHT22;41077;52.956;6.796;2022-11-20T10:55:11;2.40;99.90
55203;DHT22;41077;52.956;6.796;2022-11-20T11:00:44;2.50;99.90
55203;DHT22;41077;52.956;6.796;2022-11-20T11:03:22;2.50;99.90
55203;DHT22;41077;52.956;6.796;2022-11-20T11:05:54;2.50;99.90
55203;DHT22;41077;52.956;6.796;2022-11-20T11:08:22;2.50;99.90
55203;DHT22;41077;52.956;6.796;2022-11-20T11:11:00;2.40;99.90
55203;DHT22;41077;52.956;6.796;2022-11-20T11:13:29;2.40;99.90
55203;DHT22;41077;52.956;6.796;2022-11-20T11:15:55;2.30;99.90
55203;DHT22;41077;52.956;6.796;2022-11-20T11:18:38;2.40;99.90
55203;DHT22;41077;52.956;6.796;2022-11-20T11:21:05;2.40;99.90
55203;DHT22;41077;52.956;6.796;2022-11-20T11:23:39;2.40;99.90
55203;DHT22;41077;52.956;6.796;2022-11-20T11:26:20;2.40;99.90
55203;DHT22;41077;52.956;6.796;2022-11-20T11:29:03;2.40;99.90
55203;DHT22;41077;52.956;6.796;2022-11-20T11:31:34;2.40;99.90
55203;DHT22;41077;52.956;6.796;2022-11-20T11:34:14;2.50;99.90
55203;DHT22;41077;52.956;6.796;2022-11-20T11:36:40;2.40;99.90
55203;DHT22;41077;52.956;6.796;2022-11-20T11:39:13;2.40;99.90
55203;DHT22;41077;52.956;6.796;2022-11-20T11:41:40;2.50;99.90
55203;DHT22;41077;52.956;6.796;2022-11-20T11:44:28;2.50;99.90
55203;DHT22;41077;52.956;6.796;2022-11-20T11:47:29;2.50;99.90
55203;DHT22;41077;52.956;6.796;2022-11-20T11:50:15;2.50;99.90
55203;DHT22;41077;52.956;6.796;2022-11-20T11:55:38;2.60;99.90
55203;DHT22;41077;52.956;6.796;2022-11-20T12:01:03;2.60;99.90
55203;DHT22;41077;52.956;6.796;2022-11-20T12:03:40;2.60;99.90
55203;DHT22;41077;52.956;6.796;2022-11-20T12:06:16;2.60;99.90
55203;DHT22;41077;52.956;6.796;2022-11-20T12:09:03;2.60;99.90
55203;DHT22;41077;52.956;6.796;2022-11-20T12:11:49;2.60;99.90
55203;DHT22;41077;52.956;6.796;2022-11-20T12:14:30;2.60;99.90
55203;DHT22;41077;52.956;6.796;2022-11-20T12:16:58;2.70;99.90
55203;DHT22;41077;52.956;6.796;2022-11-20T12:19:26;2.70;99.90
55203;DHT22;41077;52.956;6.796;2022-11-20T12:30:13;2.90;99.90
55203;DHT22;41077;52.956;6.796;2022-11-20T12:43:58;3.20;99.90
55203;DHT22;41077;52.956;6.796;2022-11-20T12:46:57;3.30;99.90
55203;DHT22;41077;52.956;6.796;2022-11-20T12:52:29;3.40;99.90
55203;DHT22;41077;52.956;6.796;2022-11-20T13:00:36;3.30;99.90
55203;DHT22;41077;52.956;6.796;2022-11-20T13:08:41;3.30;99.90
55203;DHT22;41077;52.956;6.796;2022-11-20T13:13:51;3.50;99.90
55203;DHT22;41077;52.956;6.796;2022-11-20T13:19:11;3.60;99.90
55203;DHT22;41077;52.956;6.796;2022-11-20T13:21:43;3.60;99.90
55203;DHT22;41077;52.956;6.796;2022-11-20T13:24:21;3.60;99.90
55203;DHT22;41077;52.956;6.796;2022-11-20T13:29:37;3.50;99.90
55203;DHT22;41077;52.956;6.796;2022-11-20T13:32:18;3.50;99.90
55203;DHT22;41077;52.956;6.796;2022-11-20T13:35:11;3.40;99.90
55203;DHT22;41077;52.956;6.796;2022-11-20T13:37:37;3.40;99.90
55203;DHT22;41077;52.956;6.796;2022-11-20T13:45:30;3.60;99.90
55203;DHT22;41077;52.956;6.796;2022-11-20T13:47:58;3.70;99.90
55203;DHT22;41077;52.956;6.796;2022-11-20T13:53:33;3.80;99.90
55203;DHT22;41077;52.956;6.796;2022-11-20T13:59:10;3.80;99.90
55203;DHT22;41077;52.956;6.796;2022-11-20T14:01:37;3.80;99.90
55203;DHT22;41077;52.956;6.796;2022-11-20T14:04:08;3.70;99.90
55203;DHT22;41077;52.956;6.796;2022-11-20T14:06:44;3.60;99.90
55203;DHT22;41077;52.956;6.796;2022-11-20T14:09:13;3.60;99.90
55203;DHT22;41077;52.956;6.796;2022-11-20T14:11:49;3.60;99.90
55203;DHT22;41077;52.956;6.796;2022-11-20T14:14:20;3.50;99.90
55203;DHT22;41077;52.956;6.796;2022-11-20T14:16:47;3.50;99.90
55203;DHT22;41077;52.956;6.796;2022-11-20T14:19:27;3.50;99.90
55203;DHT22;41077;52.956;6.796;2022-11-20T14:24:39;3.40;99.90
55203;DHT22;41077;52.956;6.796;2022-11-20T14:27:10;3.40;99.90
55203;DHT22;41077;52.956;6.796;2022-11-20T14:29:37;3.30;99.90
55203;DHT22;41077;52.956;6.796;2022-11-20T14:32:04;3.30;99.90
55203;DHT22;41077;52.956;6.796;2022-11-20T14:34:32;3.30;99.90
55203;DHT22;41077;52.956;6.796;2022-11-20T14:37:00;3.30;99.90
55203;DHT22;41077;52.956;6.796;2022-11-20T14:39:34;3.20;99.90
55203;DHT22;41077;52.956;6.796;2022-11-20T14:42:00;3.20;99.90
55203;DHT22;41077;52.956;6.796;2022-11-20T14:44:31;3.10;99.90
55203;DHT22;41077;52.956;6.796;2022-11-20T14:46:59;3.10;99.90
55203;DHT22;41077;52.956;6.796;2022-11-20T14:49:26;3.10;99.90
55203;DHT22;41077;52.956;6.796;2022-11-20T14:52:03;3.10;99.90
55203;DHT22;41077;52.956;6.796;2022-11-20T14:54:44;3.10;99.90
55203;DHT22;41077;52.956;6.796;2022-11-20T14:57:22;3.00;99.90
55203;DHT22;41077;52.956;6.796;2022-11-20T14:59:48;2.90;99.90
55203;DHT22;41077;52.956;6.796;2022-11-20T15:02:15;3.00;99.90
55203;DHT22;41077;52.956;6.796;2022-11-20T15:04:50;2.90;99.90
55203;DHT22;41077;52.956;6.796;2022-11-20T15:07:35;2.80;99.90
55203;DHT22;41077;52.956;6.796;2022-11-20T15:10:05;2.80;99.90
55203;DHT22;41077;52.956;6.796;2022-11-20T15:12:33;2.70;99.90
55203;DHT22;41077;52.956;6.796;2022-11-20T15:15:01;2.70;99.90
55203;DHT22;41077;52.956;6.796;2022-11-20T15:17:28;2.60;99.90
55203;DHT22;41077;52.956;6.796;2022-11-20T15:19:55;2.50;99.90
55203;DHT22;41077;52.956;6.796;2022-11-20T15:22:21;2.50;99.90
55203;DHT22;41077;52.956;6.796;2022-11-20T15:24:46;2.40;99.90
55203;DHT22;41077;52.956;6.796;2022-11-20T15:27:12;2.40;99.90
55203;DHT22;41077;52.956;6.796;2022-11-20T15:29:38;2.40;99.90
55203;DHT22;41077;52.956;6.796;2022-11-20T15:32:03;2.30;99.90
55203;DHT22;41077;52.956;6.796;2022-11-20T15:34:29;2.30;99.90
55203;DHT22;41077;52.956;6.796;2022-11-20T15:36:55;2.30;99.90
55203;DHT22;41077;52.956;6.796;2022-11-20T15:39:21;2.30;99.90
55203;DHT22;41077;52.956;6.796;2022-11-20T15:41:46;2.30;99.90
55203;DHT22;41077;52.956;6.796;2022-11-20T15:44:12;2.30;99.90
55203;DHT22;41077;52.956;6.796;2022-11-20T15:46:41;2.30;99.90
55203;DHT22;41077;52.956;6.796;2022-11-20T15:49:14;2.20;99.90
55203;DHT22;41077;52.956;6.796;2022-11-20T15:51:43;2.30;99.90
55203;DHT22;41077;52.956;6.796;2022-11-20T15:54:14;2.30;99.90
55203;DHT22;41077;52.956;6.796;2022-11-20T15:56:41;2.30;99.90
55203;DHT22;41077;52.956;6.796;2022-11-20T15:59:07;2.20;99.90
55203;DHT22;41077;52.956;6.796;2022-11-20T16:01:33;2.20;99.90
55203;DHT22;41077;52.956;6.796;2022-11-20T16:03:59;2.20;99.90
55203;DHT22;41077;52.956;6.796;2022-11-20T16:06:25;2.20;99.90
55203;DHT22;41077;52.956;6.796;2022-11-20T16:08:50;2.20;99.90
55203;DHT22;41077;52.956;6.796;2022-11-20T16:11:17;2.20;99.90
55203;DHT22;41077;52.956;6.796;2022-11-20T16:13:44;2.20;99.90
55203;DHT22;41077;52.956;6.796;2022-11-20T16:16:34;2.20;99.90
55203;DHT22;41077;52.956;6.796;2022-11-20T16:19:00;2.20;99.90
55203;DHT22;41077;52.956;6.796;2022-11-20T16:21:26;2.20;99.90
55203;DHT22;41077;52.956;6.796;2022-11-20T16:24:03;2.20;99.90
55203;DHT22;41077;52.956;6.796;2022-11-20T16:26:30;2.20;99.90
55203;DHT22;41077;52.956;6.796;2022-11-20T16:28:56;2.20;99.90
55203;DHT22;41077;52.956;6.796;2022-11-20T16:31:22;2.20;99.90
55203;DHT22;41077;52.956;6.796;2022-11-20T16:33:52;2.20;99.90
55203;DHT22;41077;52.956;6.796;2022-11-20T16:36:18;2.20;99.90
55203;DHT22;41077;52.956;6.796;2022-11-20T16:38:44;2.20;99.90
55203;DHT22;41077;52.956;6.796;2022-11-20T16:41:10;2.20;99.90
55203;DHT22;41077;52.956;6.796;2022-11-20T16:43:49;2.20;99.90
55203;DHT22;41077;52.956;6.796;2022-11-20T16:46:17;2.20;99.90
55203;DHT22;41077;52.956;6.796;2022-11-20T16:48:43;2.20;99.90
55203;DHT22;41077;52.956;6.796;2022-11-20T16:51:10;2.20;99.90
55203;DHT22;41077;52.956;6.796;2022-11-20T16:53:36;2.20;99.90
55203;DHT22;41077;52.956;6.796;2022-11-20T16:56:29;2.20;99.90
55203;DHT22;41077;52.956;6.796;2022-11-20T16:58:56;2.20;99.90
55203;DHT22;41077;52.956;6.796;2022-11-20T17:01:23;2.10;99.90
55203;DHT22;41077;52.956;6.796;2022-11-20T17:03:59;2.10;99.90
55203;DHT22;41077;52.956;6.796;2022-11-20T17:06:27;2.10;99.90
55203;DHT22;41077;52.956;6.796;2022-11-20T17:08:54;2.10;99.90
55203;DHT22;41077;52.956;6.796;2022-11-20T17:11:20;2.10;99.90
55203;DHT22;41077;52.956;6.796;2022-11-20T17:13:46;2.10;99.90
55203;DHT22;41077;52.956;6.796;2022-11-20T17:16:17;2.10;99.90
55203;DHT22;41077;52.956;6.796;2022-11-20T17:18:43;2.10;99.90
55203;DHT22;41077;52.956;6.796;2022-11-20T17:21:10;2.10;99.90
55203;DHT22;41077;52.956;6.796;2022-11-20T17:23:38;2.10;99.90
55203;DHT22;41077;52.956;6.796;2022-11-20T17:28:39;2.00;99.90
55203;DHT22;41077;52.956;6.796;2022-11-20T17:31:10;2.00;99.90
55203;DHT22;41077;52.956;6.796;2022-11-20T17:33:38;2.00;99.90
55203;DHT22;41077;52.956;6.796;2022-11-20T17:36:05;2.00;99.90
55203;DHT22;41077;52.956;6.796;2022-11-20T17:38:32;2.00;99.90
55203;DHT22;41077;52.956;6.796;2022-11-20T17:41:06;1.90;99.90
55203;DHT22;41077;52.956;6.796;2022-11-20T17:43:33;2.00;99.90
55203;DHT22;41077;52.956;6.796;2022-11-20T17:46:04;2.00;99.90
55203;DHT22;41077;52.956;6.796;2022-11-20T17:48:30;1.90;99.90
55203;DHT22;41077;52.956;6.796;2022-11-20T17:51:02;1.90;99.90
55203;DHT22;41077;52.956;6.796;2022-11-20T17:53:31;1.90;99.90